• Join FlightAware (Why Join?)
  • Login
  • US Flag 
12:33PM EST


 

Airport Tracker/Info


-or-


 

Live Flight TrackerFlight Track Log ✈ SWA2624 ✈ 14-May-2013 ✈ KBWI - KABQ

Flight Track Log - Related Links

Times and Time Zones

All times are in EDT time to prevent confusion due to time zone crossing. See the SWA2624 flight status page for this flight to view local times or setup timezone preferences in your user account.

Time Position Orientation Groundspeed Altitude Reporting Facility
EDT Latitude Longitude Course Direction KTS MPH feet Rate Location/Type
07:03PM 39.1833 -76.7333 284° West 182 209 1,900  Level Potomac TRACON
07:04PM 39.2000 -76.8167 284° West 244 281 4,600 3,420 Climbing Potomac TRACON
07:05PM 39.2000 -76.9000 270° West 244 281 8,800 3,420 Climbing Potomac TRACON
07:06PM 39.2167 -76.9833 284° West 263 303 11,500 2,460 Climbing Potomac TRACON
07:07PM 39.2167 -77.1000 270° West 324 373 13,600 2,520 Climbing Potomac TRACON
07:09PM 39.0431 -77.3019 222° Southwest 390 449 20,100 2,340 Climbing Washington Center
07:10PM 38.9850 -77.4128 236° Southwest 381 438 21,700 1,980 Climbing Washington Center
07:11PM 38.9686 -77.5381 260° West 376 433 24,100 2,400 Climbing Washington Center
07:12PM 38.9431 -77.6894 258° West 396 456 26,500 1,560 Climbing Washington Center
07:13PM 38.9200 -77.8142 257° West 396 456 27,300 1,020 Climbing Washington Center
07:14PM 38.8964 -77.9600 258° West 403 464 28,600 1,440 Climbing Washington Center
07:15PM 38.8725 -78.1061 258° West 416 479 30,300 1,860 Climbing Washington Center
07:16PM 38.8528 -78.2439 260° West 416 479 32,300 1,800 Climbing Washington Center
07:17PM 38.8517 -78.3853 269° West 404 465 33,900 1,500 Climbing Washington Center
07:18PM 38.8506 -78.5239 269° West 404 465 35,400 1,380 Climbing Washington Center
07:19PM 38.8492 -78.6625 269° West 398 458 36,800 1,140 Climbing Washington Center
07:20PM 38.8478 -78.7983 269° West 398 458 37,800 540 Climbing Washington Center
07:21PM 38.8458 -78.9419 269° West 398 458 38,000 60 Climbing Washington Center
07:22PM 38.8442 -79.0806 269° West 398 458 38,000  Level Washington Center
07:23PM 38.8419 -79.2192 269° West 398 458 38,000  Level Washington Center
07:24PM 38.8397 -79.3603 269° West 403 464 38,000  Level Washington Center
07:25PM 38.8394 -79.5017 270° West 403 464 38,000  Level Washington Center
07:27PM 38.8294 -79.7722 267° West 393 452 38,000  Level Indianapolis Center
07:28PM 38.8256 -79.9408 268° West 393 452 38,000  Level Indianapolis Center
07:29PM 38.8203 -80.0797 267° West 392 451 38,000  Level Indianapolis Center
07:30PM 38.8172 -80.2189 268° West 391 450 38,000  Level Indianapolis Center
07:31PM 38.8133 -80.3583 268° West 391 450 38,000  Level Indianapolis Center
07:32PM 38.8097 -80.4953 268° West 386 444 38,000  Level Indianapolis Center
07:33PM 38.8047 -80.6336 267° West 387 445 38,000  Level Indianapolis Center
07:34PM 38.7997 -80.8003 268° West 391 450 38,000  Level Indianapolis Center
07:36PM 38.7956 -80.9406 268° West 394 453 38,000  Level Indianapolis Center
07:37PM 38.7911 -81.0819 268° West 397 457 38,000  Level Indianapolis Center
07:38PM 38.7861 -81.2214 267° West 394 453 38,000  Level Indianapolis Center
07:39PM 38.7814 -81.3625 268° West 398 458 38,000  Level Indianapolis Center
07:40PM 38.7756 -81.5256 267° West 399 459 38,000  Level Indianapolis Center
07:41PM 38.7697 -81.6656 267° West 395 455 38,000  Level Indianapolis Center
07:42PM 38.7642 -81.8036 267° West 395 455 38,000  Level Indianapolis Center
07:43PM 38.7586 -81.9411 267° West 389 448 38,000  Level Indianapolis Center
07:44PM 38.7525 -82.0803 267° West 392 451 38,000  Level Indianapolis Center
07:45PM 38.7472 -82.2183 267° West 390 449 38,000  Level Indianapolis Center
07:46PM 38.7406 -82.3833 267° West 388 447 38,000  Level Indianapolis Center
07:47PM 38.7356 -82.5231 267° West 390 449 38,000  Level Indianapolis Center
07:48PM 38.7300 -82.6608 267° West 389 448 38,000  Level Indianapolis Center
07:49PM 38.7244 -82.8003 267° West 392 451 38,000  Level Indianapolis Center
07:50PM 38.7181 -82.9414 267° West 395 455 38,000  Level Indianapolis Center
07:51PM 38.7119 -83.0833 267° West 398 458 38,000  Level Indianapolis Center
07:52PM 38.7050 -83.2239 266° West 396 456 38,000  Level Indianapolis Center
07:53PM 38.6969 -83.3897 266° West 395 455 38,000  Level Indianapolis Center
07:54PM 38.6897 -83.5294 266° West 391 450 38,000  Level Indianapolis Center
07:55PM 38.6831 -83.6708 267° West 393 452 38,000  Level Indianapolis Center
07:56PM 38.6761 -83.8125 266° West 394 453 38,000  Level Indianapolis Center
07:57PM 38.6683 -83.9522 266° West 392 451 38,000  Level Indianapolis Center
07:58PM 38.6611 -84.0942 266° West 395 455 38,000  Level Indianapolis Center
07:59PM 38.6533 -84.2361 266° West 396 456 38,000  Level Indianapolis Center
08:00PM 38.6522 -84.3778 269° West 397 457 38,000  Level Indianapolis Center
08:01PM 38.6628 -84.5403 275° West 397 457 38,000  Level Indianapolis Center
08:02PM 38.6708 -84.6811 274° West 397 457 38,000  Level Indianapolis Center
08:03PM 38.6786 -84.8208 274° West 396 456 38,000  Level Indianapolis Center
08:04PM 38.6864 -84.9611 274° West 396 456 38,000  Level Indianapolis Center
08:05PM 38.6947 -85.1014 274° West 396 456 38,000  Level Indianapolis Center
08:06PM 38.7019 -85.2406 274° West 394 453 38,000  Level Indianapolis Center
08:07PM 38.7086 -85.3806 274° West 394 453 38,000  Level Indianapolis Center
08:08PM 38.7161 -85.5206 274° West 395 455 38,000  Level Indianapolis Center
08:09PM 38.7256 -85.6914 274° West 400 460 38,000  Level Indianapolis Center
08:11PM 38.7311 -85.8342 273° West 402 463 38,000  Level Indianapolis Center
08:12PM 38.7383 -85.9792 274° West 403 464 38,000  Level Indianapolis Center
08:13PM 38.7453 -86.1256 274° West 409 471 38,000  Level Indianapolis Center
08:14PM 38.7519 -86.2700 273° West 407 468 38,000  Level Indianapolis Center
08:15PM 38.7575 -86.4147 273° West 407 468 38,000  Level Indianapolis Center
08:16PM 38.7639 -86.5589 273° West 408 470 38,000  Level Indianapolis Center
08:17PM 38.7700 -86.7053 273° West 411 473 38,000  Level Indianapolis Center
08:18PM 38.7764 -86.8778 273° West 408 470 38,000  Level Indianapolis Center
08:19PM 38.7828 -87.0231 273° West 409 471 38,000  Level Indianapolis Center
08:20PM 38.7881 -87.1694 273° West 412 474 38,000  Level Indianapolis Center
08:21PM 38.7931 -87.3158 273° West 413 475 38,000  Level Indianapolis Center
08:22PM 38.7986 -87.4619 273° West 412 474 38,000  Level Indianapolis Center
08:23PM 38.8036 -87.6092 273° West 413 475 38,000  Level Indianapolis Center
08:24PM 38.8078 -87.7556 272° West 412 474 38,000  Level Indianapolis Center
08:25PM 38.8117 -87.9033 272° West 409 471 38,000  Level Kansas City Center
08:26PM 38.8147 -88.0503 272° West 411 473 38,000  Level Kansas City Center
08:27PM 38.8194 -88.1958 272° West 409 471 38,000  Level Kansas City Center
08:28PM 38.8217 -88.3433 271° West 412 474 38,000  Level Kansas City Center
08:29PM 38.8261 -88.4919 272° West 415 478 38,000  Level Kansas City Center
08:30PM 38.8300 -88.6486 272° West 415 478 38,000  Level Kansas City Center
08:31PM 38.8331 -88.7969 272° West 416 479 38,000  Level Kansas City Center
08:32PM 38.8378 -88.9456 272° West 418 481 38,000  Level Kansas City Center
08:33PM 38.8431 -89.1189 272° West 420 483 38,000  Level Kansas City Center
08:34PM 38.8450 -89.2658 271° West 415 478 38,000  Level Kansas City Center
08:35PM 38.8475 -89.4228 271° West 411 473 38,000  Level Kansas City Center
08:36PM 38.8506 -89.5686 272° West 411 473 38,000  Level Kansas City Center
08:37PM 38.8519 -89.7103 271° West 412 474 38,000  Level Kansas City Center
08:38PM 38.8536 -89.8578 271° West 415 478 38,000  Level Kansas City Center
08:39PM 38.8575 -90.0317 272° West 418 481 38,000  Level Kansas City Center
08:40PM 38.8597 -90.1839 271° West 424 488 38,000  Level Kansas City Center
08:41PM 38.8625 -90.3339 271° West 423 487 38,000  Level Kansas City Center
08:42PM 38.8631 -90.4842 270° West 422 486 38,000  Level Kansas City Center
08:43PM 38.8425 -90.6347 260° West 429 494 38,000  Level Kansas City Center
08:44PM 38.8236 -90.7744 260° West 419 482 38,000  Level Kansas City Center
08:45PM 38.8011 -90.9511 261° West 422 486 38,000  Level Kansas City Center
08:46PM 38.7814 -91.0972 260° West 421 484 38,000  Level Kansas City Center
08:47PM 38.7625 -91.2456 261° West 423 487 38,000  Level Kansas City Center
08:48PM 38.7425 -91.3928 260° West 423 487 38,000  Level Kansas City Center
08:49PM 38.7222 -91.5389 260° West 420 483 38,000  Level Kansas City Center
08:50PM 38.7003 -91.7000 260° West 427 491 38,000  Level Kansas City Center
08:51PM 38.6794 -91.8481 260° West 426 490 38,000  Level Kansas City Center
08:53PM 38.6572 -91.9978 259° West 428 493 38,000  Level Kansas City Center
08:54PM 38.6306 -92.1794 259° West 433 498 38,000  Level Kansas City Center
08:55PM 38.6078 -92.3303 259° West 435 501 38,000  Level Kansas City Center
08:56PM 38.5856 -92.4814 259° West 435 501 38,000  Level Kansas City Center
08:57PM 38.5628 -92.6328 259° West 435 501 38,000  Level Kansas City Center
08:58PM 38.5403 -92.7853 259° West 438 504 38,000  Level Kansas City Center
08:59PM 38.5164 -92.9364 259° West 438 504 38,000  Level Kansas City Center
09:00PM 38.4944 -93.0869 259° West 435 501 38,000  Level Kansas City Center
09:01PM 38.4667 -93.2675 259° West 433 498 38,000  Level Kansas City Center
09:02PM 38.4439 -93.4183 259° West 434 499 38,000  Level Kansas City Center
09:03PM 38.4189 -93.5694 258° West 435 501 38,000  Level Kansas City Center
09:04PM 38.3958 -93.7197 259° West 433 498 38,000  Level Kansas City Center
09:05PM 38.3708 -93.8714 258° West 435 501 38,000  Level Kansas City Center
09:06PM 38.3469 -94.0231 259° West 437 503 38,000  Level Kansas City Center
09:07PM 38.3194 -94.1925 258° West 438 504 38,000  Level Kansas City Center
09:08PM 38.2967 -94.3397 259° West 440 506 38,000  Level Kansas City Center
09:09PM 38.2678 -94.5128 258° West 443 510 38,000  Level Kansas City Center
09:10PM 38.2436 -94.6619 258° West 445 512 38,000  Level Kansas City Center
09:11PM 38.2208 -94.8114 259° West 448 516 38,000  Level Kansas City Center
09:12PM 38.1931 -94.9853 259° West 448 516 38,000  Level Kansas City Center
09:13PM 38.1689 -95.1364 259° West 451 519 38,000  Level Kansas City Center
09:14PM 38.1389 -95.3097 258° West 451 519 38,000  Level Kansas City Center
09:15PM 38.1136 -95.4583 258° West 449 517 38,000  Level Kansas City Center
09:16PM 38.0842 -95.6303 258° West 446 513 38,000  Level Kansas City Center
09:17PM 38.0592 -95.7775 258° West 446 513 38,000  Level Kansas City Center
09:18PM 38.0331 -95.9239 257° West 445 512 38,000  Level Kansas City Center
09:19PM 38.0053 -96.0975 259° West 449 517 38,000  Level Kansas City Center
09:20PM 37.9792 -96.2564 258° West 445 512 38,000  Level Kansas City Center
09:21PM 37.9539 -96.4078 258° West 440 506 38,000  Level Kansas City Center
09:22PM 37.9283 -96.5592 258° West 439 505 38,000  Level Kansas City Center
09:23PM 37.9025 -96.7097 258° West 438 504 38,000  Level Kansas City Center
09:24PM 37.8769 -96.8600 258° West 437 503 38,000  Level Kansas City Center
09:25PM 37.8494 -97.0089 257° West 435 501 38,000  Level Kansas City Center
09:26PM 37.8222 -97.1586 257° West 436 502 38,000  Level Kansas City Center
09:27PM 37.7908 -97.3358 257° West 431 496 38,000  Level Kansas City Center
09:29PM 37.7647 -97.4772 257° West 435 501 38,000  Level Kansas City Center
09:30PM 37.7369 -97.6250 257° West 434 499 38,000  Level Kansas City Center
09:31PM 37.7094 -97.7750 257° West 436 502 38,000  Level Kansas City Center
09:32PM 37.6800 -97.9228 256° West 436 502 38,000  Level Kansas City Center
09:33PM 37.6461 -98.1003 256° West 434 499 38,000  Level Kansas City Center
09:34PM 37.6197 -98.2353 256° West 433 498 38,000  Level Kansas City Center
09:35PM 37.5908 -98.3828 256° West 433 498 38,000  Level Kansas City Center
09:36PM 37.5611 -98.5319 256° West 435 501 38,000  Level Kansas City Center
09:37PM 37.5308 -98.6789 255° West 434 499 38,000  Level Kansas City Center
09:38PM 37.5022 -98.8267 256° West 434 499 38,000  Level Kansas City Center
09:39PM 37.4647 -99.0019 255° West 433 498 38,000  Level Kansas City Center
09:40PM 37.4356 -99.1483 256° West 432 497 38,000  Level Kansas City Center
09:41PM 37.4036 -99.2947 255° West 433 498 38,000  Level Kansas City Center
09:42PM 37.3733 -99.4417 256° West 435 501 38,000  Level Kansas City Center
09:43PM 37.3400 -99.6011 255° West 434 499 38,000  Level Kansas City Center
09:44PM 37.3108 -99.7439 256° West 438 504 38,000  Level Kansas City Center
09:45PM 37.2742 -99.9106 255° West 442 509 38,000  Level Kansas City Center
09:46PM 37.2447 -100.0522 255° West 439 505 38,000  Level Kansas City Center
09:47PM 37.2094 -100.2192 255° West 441 507 38,000  Level Kansas City Center
09:48PM 37.1781 -100.3614 255° West 441 507 38,000  Level Kansas City Center
09:49PM 37.1475 -100.5044 255° West 442 509 38,000  Level Kansas City Center
09:50PM 37.1111 -100.6703 255° West 441 507 38,000  Level Kansas City Center
09:51PM 37.0797 -100.8125 255° West 441 507 38,000  Level Kansas City Center
09:52PM 37.0475 -100.9550 254° West 442 509 38,000  Level Kansas City Center
09:53PM 37.0036 -101.1194 252° West 445 512 38,000  Level Kansas City Center
09:54PM 36.9644 -101.2608 251° West 447 514 38,000  Level Kansas City Center
09:55PM 36.9197 -101.4253 251° West 447 514 38,000  Level Kansas City Center
09:56PM 36.9064 -101.4714 250° West 448 516 38,000  Level Albuquerque Center
09:57PM 36.8597 -101.6364 251° West 449 517 38,000  Level Albuquerque Center
09:58PM 36.8208 -101.7794 251° West 453 521 38,000  Level Albuquerque Center
09:59PM 36.7797 -101.9214 250° West 455 524 38,000  Level Albuquerque Center
10:00PM 36.7336 -102.0856 251° West 451 519 38,000  Level Albuquerque Center
10:01PM 36.6886 -102.2422 250° West 451 519 38,000  Level Albuquerque Center
10:02PM 36.6458 -102.3897 250° West 454 522 38,000  Level Albuquerque Center
10:03PM 36.6044 -102.5364 251° West 452 520 38,000  Level Albuquerque Center
10:04PM 36.5617 -102.6831 250° West 453 521 38,000  Level Albuquerque Center
10:05PM 36.5186 -102.8281 250° West 452 520 38,000  Level Albuquerque Center
10:06PM 36.4783 -102.9725 251° West 452 520 38,000  Level Albuquerque Center
10:07PM 36.4347 -103.1197 250° West 451 519 38,000  Level Albuquerque Center
10:08PM 36.3908 -103.2669 250° West 451 519 38,000  Level Albuquerque Center
10:09PM 36.3394 -103.4383 250° West 451 519 38,000  Level Albuquerque Center
10:10PM 36.2967 -103.5842 250° West 450 518 38,000  Level Albuquerque Center
10:11PM 36.2608 -103.7350 254° West 451 519 38,000  Level Albuquerque Center
10:12PM 36.2244 -103.8831 253° West 449 517 38,000  Level Albuquerque Center
10:13PM 36.1867 -104.0325 253° West 450 518 38,000  Level Albuquerque Center
10:14PM 36.1506 -104.1808 253° West 450 518 38,000  Level Albuquerque Center
10:15PM 36.1108 -104.3281 252° West 450 518 38,000  Level Albuquerque Center
10:16PM 36.0739 -104.4794 253° West 456 525 38,000  Level Albuquerque Center
10:17PM 36.0364 -104.6300 253° West 457 526 38,000  Level Albuquerque Center
10:18PM 35.9972 -104.7806 252° West 457 526 38,000  Level Albuquerque Center
10:19PM 35.9578 -104.9317 252° West 460 529 38,000 -540 Level Albuquerque Center
10:20PM 35.9111 -105.1106 252° West 466 536 37,000 -960 Descending Albuquerque Center
10:21PM 35.8731 -105.2608 253° West 461 531 36,100 -1,200 Descending Albuquerque Center
10:22PM 35.8339 -105.4100 252° West 457 526 34,600 -2,160 Descending Albuquerque Center
10:23PM 35.7956 -105.5547 252° West 461 531 31,700 -2,580 Descending Albuquerque Center
10:24PM 35.7567 -105.7028 252° West 458 527 29,400 -2,100 Descending Albuquerque Center
10:25PM 35.7186 -105.8453 252° West 446 513 27,500 -2,160 Descending Albuquerque Center
10:26PM 35.6825 -105.9839 252° West 432 497 25,100 -2,220 Descending Albuquerque Center
10:27PM 35.6461 -106.1169 251° West 417 480 23,000 -2,040 Descending Albuquerque Center
10:28PM 35.6289 -106.2506 261° West 402 463 21,000 -1,920 Descending Albuquerque Center
10:29PM 35.6156 -106.3794 263° West 388 447 19,100 -2,160 Descending Albuquerque Center
10:30PM 35.6075 -106.4375 260° West 376 433 18,200 -2,280 Descending Albuquerque Center
10:30PM 35.5997 -106.5278 264° West 370 426 16,800 -1,920 Descending Albuquerque Center
10:31PM 35.5853 -106.5661 245° Southwest 356 410 16,100 -1,980 Descending Albuquerque Center
10:31PM 35.5347 -106.6086 214° Southwest 375 432 14,800 -1,440 Descending Albuquerque Center
10:32PM 35.4900 -106.6325 204° Southwest 345 397 14,500 -1,080 Descending Albuquerque Center
10:32PM 35.4492 -106.6553 204° Southwest 343 395 13,700 -1,500 Descending Albuquerque Center
10:33PM 35.4083 -106.6772 204° Southwest 317 365 13,000 -1,500 Descending Albuquerque Center
10:33PM 35.3681 -106.6983 203° Southwest 326 375 12,200 -1,560 Descending Albuquerque Center
10:34PM 35.3342 -106.7172 204° Southwest 313 360 11,600 -1,500 Descending Albuquerque Center
10:34PM 35.2881 -106.7408 203° Southwest 318 366 10,700 -1,320 Descending Albuquerque Center
10:35PM 35.2528 -106.7514 194° South 312 359 10,300 -1,020 Descending Albuquerque Center
10:35PM 35.2050 -106.7658 194° South 308 354 9,700 -1,020 Descending Albuquerque Center
10:36PM 35.1658 -106.7789 195° South 291 335 9,200 -1,140 Descending Albuquerque Center
10:36PM 35.1264 -106.7906 194° South 298 343 8,600 -600 Descending Albuquerque Center
10:37PM 35.0872 -106.7936 184° South 259 298 8,600 -540 Level Albuquerque Center
10:37PM 35.0611 -106.7717 145° Southeast 268 308 8,100 -1,440 Descending Albuquerque Center
10:38PM 35.0461 -106.7525 134° Southeast 224 258 7,300 -1,380 Descending Albuquerque Center
10:39PM 35.0442 -106.7033 93° East 236 272 6,700 -1,140 Descending Albuquerque Center
10:39PM 35.0444 -106.6828 89° East 193 222 6,200 -1,020 Descending Albuquerque Center
10:40PM 35.0444 -106.6419 90° East 206 237 5,700 -480 Descending Albuquerque Center
10:41PM 35.0442 -106.5903 90° East 193 222 5,400 -300 Descending Albuquerque Center